createdAt,value
2019-06-07T00:01:50.673Z,72.98
2019-06-07T00:04:21.501Z,73.31
2019-06-07T00:06:50.889Z,73.41
2019-06-07T00:09:22.506Z,73.79
2019-06-07T00:11:51.376Z,73.50
2019-06-07T00:14:21.269Z,73.51
2019-06-07T00:16:50.987Z,73.12
2019-06-07T00:19:20.570Z,73.13
2019-06-07T00:22:15.781Z,72.94
2019-06-07T00:24:21.847Z,72.96
2019-06-07T00:26:58.540Z,72.83
2019-06-07T00:29:22.548Z,72.42
2019-06-07T00:31:51.754Z,73.62
2019-06-07T00:34:23.008Z,73.62
2019-06-07T00:36:52.887Z,74.02
2019-06-07T00:39:25.581Z,74.68
2019-06-07T00:41:53.252Z,74.99
2019-06-07T00:44:23.584Z,75.15
2019-06-07T00:46:52.984Z,75.52
2019-06-07T00:49:40.025Z,75.67
2019-06-07T00:51:54.119Z,75.67
2019-06-07T00:54:24.831Z,75.57
2019-06-07T00:56:54.747Z,75.17
2019-06-07T00:59:29.196Z,74.16
2019-06-07T01:01:54.945Z,73.59
2019-06-07T01:04:26.693Z,73.19
2019-06-07T01:06:56.073Z,73.20
2019-06-07T01:09:25.644Z,73.45
2019-06-07T01:11:55.004Z,74.40
2019-06-07T01:14:28.081Z,74.98
2019-06-07T01:17:01.418Z,75.31
2019-06-07T01:19:27.845Z,75.55
2019-06-07T01:21:57.486Z,75.75
2019-06-07T01:24:28.104Z,75.77
2019-06-07T01:26:57.625Z,75.59
2019-06-07T01:29:30.909Z,74.93
2019-06-07T01:31:58.656Z,74.59
2019-06-07T01:34:28.911Z,74.49
2019-06-07T01:36:58.850Z,74.96
2019-06-07T01:39:31.067Z,75.55
2019-06-07T01:41:59.091Z,75.88
2019-06-07T01:44:30.729Z,75.93
2019-06-07T01:46:59.330Z,76.22
2019-06-07T01:49:29.865Z,75.82
2019-06-07T01:51:59.388Z,76.00
2019-06-07T01:57:00.309Z,75.74
2019-06-07T01:59:31.644Z,75.93
2019-06-07T02:02:02.737Z,76.22
2019-06-07T02:04:33.384Z,76.16
2019-06-07T02:07:04.899Z,76.20
2019-06-07T02:09:34.282Z,76.45
2019-06-07T02:12:24.752Z,76.54
2019-06-07T02:14:34.556Z,76.43
2019-06-07T02:17:05.692Z,76.73
2019-06-07T02:19:34.999Z,76.56
2019-06-07T02:22:04.298Z,76.60
2019-06-07T02:24:35.812Z,76.65
2019-06-07T02:27:05.595Z,76.71
2019-06-07T02:29:35.457Z,76.84
2019-06-07T02:32:04.706Z,76.88
2019-06-07T02:34:38.563Z,77.15
2019-06-07T02:37:05.175Z,77.05
2019-06-07T02:39:40.182Z,76.99
2019-06-07T02:42:07.700Z,77.09
2019-06-07T02:44:39.424Z,77.34
2019-06-07T02:47:08.413Z,77.53
2019-06-07T02:49:41.381Z,77.62
2019-06-07T02:52:09.228Z,77.64
2019-06-07T02:54:40.525Z,77.70
2019-06-07T02:57:11.621Z,77.88
2019-06-07T03:00:05.102Z,77.88
2019-06-07T03:02:13.585Z,78.12
2019-06-07T03:04:44.872Z,78.31
2019-06-07T03:07:14.187Z,78.28
2019-06-07T03:09:43.983Z,78.28
2019-06-07T03:12:15.381Z,78.33
2019-06-07T03:14:44.808Z,78.48
2019-06-07T03:17:37.817Z,78.53
2019-06-07T03:20:06.767Z,78.39
2019-06-07T03:22:39.858Z,78.35
2019-06-07T03:25:09.606Z,78.33
2019-06-07T03:27:48.624Z,78.55
2019-06-07T03:30:36.499Z,78.50
2019-06-07T03:32:47.169Z,78.30
2019-06-07T03:35:14.152Z,78.25
2019-06-07T03:37:43.432Z,78.23
2019-06-07T03:40:13.143Z,78.05
2019-06-07T03:42:42.400Z,77.89
2019-06-07T03:45:12.177Z,77.71
2019-06-07T03:47:43.033Z,77.92
2019-06-07T03:50:12.597Z,77.69
2019-06-07T03:52:41.997Z,77.60
2019-06-07T03:55:12.304Z,76.81
2019-06-07T04:00:13.665Z,76.98
2019-06-07T04:02:43.632Z,74.74
2019-06-07T04:05:13.129Z,68.56
2019-06-07T04:07:44.479Z,65.93
2019-06-07T04:10:14.056Z,63.10
2019-06-07T04:12:44.421Z,60.63
2019-06-07T04:15:14.123Z,61.54
2019-06-07T04:18:00.891Z,58.57
2019-06-07T04:20:14.992Z,60.33
2019-06-07T04:22:44.239Z,62.44
2019-06-07T04:25:13.872Z,62.70
2019-06-07T04:27:43.145Z,63.23
2019-06-07T04:30:12.598Z,63.89
2019-06-07T04:32:45.069Z,63.48
2019-06-07T04:35:14.845Z,63.78
2019-06-07T04:37:44.098Z,63.68
2019-06-07T04:40:13.602Z,63.59
2019-06-07T04:42:45.241Z,64.46
2019-06-07T04:45:33.027Z,64.36
2019-06-07T04:47:46.535Z,65.02
2019-06-07T04:50:16.137Z,64.44
2019-06-07T04:52:46.443Z,66.06
2019-06-07T04:55:16.072Z,66.21
2019-06-07T04:57:45.752Z,63.98
2019-06-07T05:00:46.658Z,63.40
2019-06-07T05:02:47.848Z,58.72
2019-06-07T05:05:17.162Z,55.62
2019-06-07T05:07:46.955Z,52.82
2019-06-07T05:10:16.457Z,51.39
2019-06-07T05:12:46.206Z,47.95
2019-06-07T05:15:15.980Z,48.75
2019-06-07T05:17:47.171Z,48.75
2019-06-07T05:20:17.165Z,48.25
2019-06-07T05:22:46.927Z,46.40
2019-06-07T05:25:17.221Z,43.15
2019-06-07T05:27:48.181Z,42.83
2019-06-07T05:33:04.845Z,42.31
2019-06-07T05:35:35.571Z,40.59
2019-06-07T05:38:05.487Z,41.59
2019-06-07T05:40:39.464Z,42.44
2019-06-07T05:43:10.381Z,41.68
2019-06-07T05:45:44.994Z,44.08
2019-06-07T05:48:11.132Z,46.71
2019-06-07T05:50:49.978Z,45.95
2019-06-07T05:53:11.446Z,45.47
2019-06-07T05:55:45.082Z,42.83
2019-06-07T05:58:12.409Z,43.42
2019-06-07T06:00:47.146Z,41.48
2019-06-07T06:03:14.771Z,41.23
2019-06-07T06:05:53.970Z,38.31
2019-06-07T06:08:15.053Z,38.00
2019-06-07T06:10:48.313Z,41.13
2019-06-07T06:13:17.476Z,40.06
2019-06-07T06:16:00.886Z,38.87
2019-06-07T06:18:18.654Z,40.30
2019-06-07T06:21:09.812Z,38.22
2019-06-07T06:23:19.311Z,38.22
2019-06-07T06:25:55.840Z,36.24
2019-06-07T06:28:20.523Z,37.66
2019-06-07T06:30:51.044Z,40.12
2019-06-07T06:33:33.452Z,39.70
2019-06-07T06:35:52.076Z,37.21
2019-06-07T06:38:21.488Z,34.71
2019-06-07T06:41:11.711Z,32.92
2019-06-07T06:43:21.719Z,34.26
2019-06-07T06:45:51.034Z,32.86
2019-06-07T06:48:20.695Z,33.03
2019-06-07T06:50:52.352Z,38.20
2019-06-07T06:53:20.897Z,34.36
2019-06-07T06:55:51.416Z,36.34
2019-06-07T06:58:21.048Z,36.10
2019-06-07T07:01:04.945Z,39.03
2019-06-07T07:05:55.041Z,38.24
2019-06-07T07:08:24.599Z,37.92
2019-06-07T07:10:55.059Z,38.43
2019-06-07T07:13:24.566Z,35.70
2019-06-07T07:15:57.899Z,38.16
2019-06-07T07:18:26.680Z,40.37
2019-06-07T07:20:57.595Z,46.42
2019-06-07T07:23:27.082Z,46.49
2019-06-07T07:25:59.223Z,49.63
2019-06-07T07:28:27.646Z,50.83
2019-06-07T07:30:57.454Z,49.29
2019-06-07T07:34:20.083Z,48.03
2019-06-07T07:36:22.734Z,50.63
2019-06-07T07:38:31.447Z,49.64
2019-06-07T07:41:14.133Z,49.92
2019-06-07T07:43:32.162Z,49.14
2019-06-07T07:46:03.111Z,49.03
2019-06-07T07:48:33.076Z,48.55
2019-06-07T07:51:04.082Z,48.97
2019-06-07T07:53:48.630Z,49.10
2019-06-07T07:56:05.988Z,48.14
2019-06-07T07:58:35.695Z,48.12
2019-06-07T08:01:10.645Z,48.32
2019-06-07T08:03:36.713Z,48.03
2019-06-07T08:06:06.643Z,48.35
2019-06-07T08:08:35.877Z,45.38
2019-06-07T08:11:06.139Z,46.29
2019-06-07T08:13:35.818Z,45.08
2019-06-07T08:16:13.677Z,46.58
2019-06-07T08:18:37.714Z,45.75
2019-06-07T08:21:23.245Z,45.87
2019-06-07T08:23:37.936Z,46.76
2019-06-07T08:26:07.296Z,47.13
2019-06-07T08:28:37.476Z,47.28
2019-06-07T08:31:07.901Z,47.52
2019-06-07T08:33:37.634Z,47.19
2019-06-07T08:36:21.847Z,46.56
2019-06-07T08:38:47.392Z,46.19
2019-06-07T08:41:12.003Z,46.19
2019-06-07T08:43:40.167Z,45.88
2019-06-07T08:46:09.390Z,46.25
2019-06-07T08:48:38.682Z,47.13
2019-06-07T08:51:08.825Z,47.01
2019-06-07T08:53:38.167Z,47.22
2019-06-07T08:56:10.876Z,46.40
2019-06-07T08:58:38.616Z,46.80
2019-06-07T09:01:09.110Z,46.06
2019-06-07T09:03:39.345Z,45.42
2019-06-07T09:06:53.896Z,45.58
2019-06-07T09:08:40.782Z,45.35
2019-06-07T09:11:11.168Z,44.56
2019-06-07T09:13:40.919Z,46.23
2019-06-07T09:16:10.204Z,44.56
2019-06-07T09:18:43.901Z,43.64
2019-06-07T09:21:11.434Z,43.44
2019-06-07T09:23:40.995Z,44.56
2019-06-07T09:26:18.390Z,44.73
2019-06-07T09:28:44.001Z,42.79
2019-06-07T09:31:14.010Z,43.15
2019-06-07T09:33:43.331Z,44.39
2019-06-07T09:36:13.529Z,44.03
2019-06-07T09:38:44.107Z,43.53
2019-06-07T09:41:13.649Z,43.15
2019-06-07T09:46:16.041Z,43.62
2019-06-07T09:49:10.735Z,42.44
2019-06-07T09:51:19.631Z,43.16
2019-06-07T09:53:47.187Z,43.27
2019-06-07T09:56:16.520Z,42.97
2019-06-07T09:58:51.765Z,42.46
2019-06-07T10:01:18.124Z,43.79
2019-06-07T10:03:47.834Z,42.05
2019-06-07T10:06:17.416Z,42.40
2019-06-07T10:11:18.062Z,42.60
2019-06-07T10:13:47.347Z,42.50
2019-06-07T10:16:16.921Z,43.05
2019-06-07T10:18:46.197Z,43.40
2019-06-07T10:21:17.512Z,42.45
2019-06-07T10:23:46.754Z,41.92
2019-06-07T10:26:16.020Z,43.19
2019-06-07T10:28:45.660Z,45.33
2019-06-07T10:31:14.894Z,43.80
2019-06-07T10:33:45.299Z,44.28
2019-06-07T10:36:14.904Z,45.00
2019-06-07T10:38:44.499Z,43.93
2019-06-07T10:41:14.244Z,42.86
2019-06-07T10:43:43.494Z,42.75
2019-06-07T10:46:13.113Z,42.07
2019-06-07T10:48:42.377Z,44.12
2019-06-07T10:51:14.621Z,43.50
2019-06-07T10:53:43.194Z,43.35
2019-06-07T10:56:13.607Z,41.62
2019-06-07T10:58:44.839Z,43.61
2019-06-07T11:01:14.621Z,41.67
2019-06-07T11:03:43.820Z,43.74
2019-06-07T11:06:14.296Z,42.78
2019-06-07T11:08:43.765Z,41.78
2019-06-07T11:11:14.399Z,40.76
2019-06-07T11:13:43.866Z,41.48
2019-06-07T11:16:13.512Z,42.00
2019-06-07T11:18:44.834Z,42.28
2019-06-07T11:21:14.491Z,40.11
2019-06-07T11:23:43.866Z,40.96
2019-06-07T11:26:14.380Z,42.29
2019-06-07T11:28:43.835Z,42.61
2019-06-07T11:31:15.081Z,43.14
2019-06-07T11:33:45.779Z,42.22
2019-06-07T11:36:15.406Z,40.65
2019-06-07T11:38:45.241Z,41.91
2019-06-07T11:41:15.678Z,41.84
2019-06-07T11:43:45.518Z,42.14
2019-06-07T11:46:15.167Z,41.89
2019-06-07T11:48:44.956Z,40.94
2019-06-07T11:51:14.928Z,40.40
2019-06-07T11:53:44.280Z,41.81
2019-06-07T11:56:15.952Z,42.54
2019-06-07T11:58:45.317Z,40.20
2019-06-07T12:01:16.643Z,40.37
2019-06-07T12:03:46.059Z,41.58
2019-06-07T12:06:16.410Z,41.35
2019-06-07T12:08:46.074Z,40.92
2019-06-07T12:11:16.551Z,39.13
2019-06-07T12:13:46.051Z,39.52
2019-06-07T12:16:17.244Z,40.24
2019-06-07T12:18:46.689Z,40.65
2019-06-07T12:21:16.046Z,41.44
2019-06-07T12:23:45.691Z,40.82
2019-06-07T12:26:16.587Z,40.59
2019-06-07T12:28:46.003Z,39.04
2019-06-07T12:31:17.073Z,38.73
2019-06-07T12:33:46.934Z,40.41
2019-06-07T12:36:17.822Z,40.98
2019-06-07T12:38:47.514Z,39.32
2019-06-07T12:41:18.899Z,39.34
2019-06-07T12:43:48.505Z,38.87
2019-06-07T12:46:23.360Z,39.28
2019-06-07T12:48:49.118Z,39.84
2019-06-07T12:51:21.325Z,38.65
2019-06-07T12:53:50.585Z,39.32
2019-06-07T12:56:19.889Z,39.00
2019-06-07T12:58:50.558Z,38.67
2019-06-07T13:01:21.391Z,38.92
2019-06-07T13:03:53.656Z,39.11
2019-06-07T13:06:23.994Z,39.70
2019-06-07T13:08:53.298Z,37.59
2019-06-07T13:11:29.299Z,38.46
2019-06-07T13:13:53.883Z,39.21
2019-06-07T13:16:24.229Z,39.88
2019-06-07T13:18:53.913Z,39.20
2019-06-07T13:21:24.666Z,38.71
2019-06-07T13:23:54.329Z,38.22
2019-06-07T13:26:24.942Z,39.52
2019-06-07T13:28:54.332Z,40.12
2019-06-07T13:31:25.301Z,38.22
2019-06-07T13:33:55.323Z,38.09
2019-06-07T13:36:24.611Z,39.23
2019-06-07T13:38:53.840Z,39.04
2019-06-07T13:41:36.530Z,39.03
2019-06-07T13:43:54.583Z,38.12
2019-06-07T13:46:25.269Z,39.04
2019-06-07T13:48:54.749Z,37.64
2019-06-07T13:51:25.138Z,38.25
2019-06-07T13:53:55.042Z,39.32
2019-06-07T13:56:26.035Z,38.65
2019-06-07T13:58:55.595Z,38.98
2019-06-07T14:01:27.215Z,38.50
2019-06-07T14:03:57.495Z,38.18
2019-06-07T14:06:27.972Z,37.45
2019-06-07T14:08:59.058Z,37.17
2019-06-07T14:11:29.938Z,37.98
2019-06-07T14:14:00.438Z,36.69
2019-06-07T14:16:30.411Z,37.03
2019-06-07T14:18:59.763Z,38.25
2019-06-07T14:21:30.759Z,37.95
2019-06-07T14:24:00.491Z,37.28
2019-06-07T14:26:29.883Z,37.87
2019-06-07T14:29:00.726Z,38.99
2019-06-07T14:31:30.460Z,37.93
2019-06-07T14:34:00.028Z,36.41
2019-06-07T14:36:31.445Z,37.33
2019-06-07T14:39:01.321Z,36.87
2019-06-07T14:41:31.815Z,38.05
2019-06-07T14:44:01.212Z,37.81
2019-06-07T14:46:30.651Z,36.67
2019-06-07T14:49:00.159Z,36.09
2019-06-07T14:51:31.773Z,36.63
2019-06-07T14:54:00.735Z,37.27
2019-06-07T14:56:31.225Z,36.14
2019-06-07T14:59:03.022Z,36.12
2019-06-07T15:01:33.461Z,36.54
2019-06-07T15:04:03.677Z,37.02
2019-06-07T15:06:33.010Z,37.72
2019-06-07T15:09:02.562Z,37.18
2019-06-07T15:11:32.983Z,37.50
2019-06-07T15:14:02.511Z,38.11
2019-06-07T15:16:33.854Z,37.50
2019-06-07T15:19:04.371Z,37.25
2019-06-07T15:21:35.204Z,37.08
2019-06-07T15:24:04.570Z,37.11
2019-06-07T15:26:34.562Z,37.33
2019-06-07T15:29:04.489Z,36.63
2019-06-07T15:31:34.654Z,36.86
2019-06-07T15:34:04.506Z,37.46
2019-06-07T15:36:36.410Z,38.12
2019-06-07T15:39:07.608Z,37.83
2019-06-07T15:41:39.683Z,37.52
2019-06-07T15:44:09.210Z,37.67
2019-06-07T15:46:40.206Z,38.40
2019-06-07T15:49:09.941Z,37.65
2019-06-07T15:51:40.988Z,38.16
2019-06-07T15:54:10.697Z,38.39
2019-06-07T15:56:41.212Z,38.10
2019-06-07T15:59:10.696Z,38.22
2019-06-07T16:01:42.064Z,38.95
2019-06-07T16:04:11.545Z,38.05
2019-06-07T16:06:43.181Z,39.12
2019-06-07T16:09:11.850Z,38.01
2019-06-07T16:11:43.475Z,37.88
2019-06-07T16:14:13.383Z,39.69
2019-06-07T16:16:43.366Z,38.94
2019-06-07T16:19:12.674Z,39.74
2019-06-07T16:21:42.005Z,38.93
2019-06-07T16:24:11.467Z,39.07
2019-06-07T16:26:42.431Z,39.52
2019-06-07T16:29:11.982Z,40.08
2019-06-07T16:31:41.251Z,39.93
2019-06-07T16:34:12.127Z,40.18
2019-06-07T16:36:42.303Z,40.59
2019-06-07T16:39:12.163Z,41.61
2019-06-07T16:41:42.844Z,42.27
2019-06-07T16:44:12.679Z,42.72
2019-06-07T16:46:44.896Z,43.13
2019-06-07T16:49:16.868Z,43.67
2019-06-07T16:51:49.404Z,44.67
2019-06-07T16:54:20.535Z,46.59
2019-06-07T16:56:51.433Z,47.81
2019-06-07T16:59:24.927Z,49.02
2019-06-07T17:01:54.240Z,49.32
2019-06-07T17:04:23.851Z,50.70
2019-06-07T17:06:53.393Z,51.58
2019-06-07T17:09:24.005Z,51.79
2019-06-07T17:11:54.079Z,54.07
2019-06-07T17:14:24.098Z,58.73
2019-06-07T17:16:53.763Z,61.37
2019-06-07T17:19:23.719Z,61.77
2019-06-07T17:21:52.965Z,63.28
2019-06-07T17:24:22.576Z,64.08
2019-06-07T17:26:54.426Z,65.63
2019-06-07T17:29:23.853Z,66.66
2019-06-07T17:31:53.187Z,67.54
2019-06-07T17:34:23.249Z,68.16
2019-06-07T17:36:52.870Z,68.65
2019-06-07T17:39:22.167Z,68.78
2019-06-07T17:42:01.856Z,68.54
2019-06-07T17:44:24.537Z,68.31
2019-06-07T17:46:55.635Z,68.71
2019-06-07T17:49:25.397Z,68.80
2019-06-07T17:51:54.976Z,68.61
2019-06-07T17:54:27.651Z,68.68
2019-06-07T17:56:57.307Z,68.13
2019-06-07T17:59:26.632Z,67.87
2019-06-07T18:02:13.265Z,68.08
2019-06-07T18:04:27.255Z,67.67
2019-06-07T18:06:57.845Z,67.29
2019-06-07T18:09:27.521Z,66.75
2019-06-07T18:11:56.826Z,64.90
2019-06-07T18:14:26.514Z,64.34
2019-06-07T18:16:56.508Z,64.19
2019-06-07T18:19:26.213Z,63.32
2019-06-07T18:21:58.821Z,62.54
2019-06-07T18:24:28.643Z,62.69
2019-06-07T18:26:58.937Z,62.29
2019-06-07T18:29:30.391Z,61.26
2019-06-07T18:32:00.427Z,61.47
2019-06-07T18:34:30.327Z,61.16
2019-06-07T18:37:01.530Z,60.29
2019-06-07T18:39:31.100Z,60.13
2019-06-07T18:42:00.840Z,59.34
2019-06-07T18:44:30.479Z,59.22
2019-06-07T18:47:00.822Z,59.31
2019-06-07T18:49:30.865Z,58.83
2019-06-07T18:52:22.977Z,59.23
2019-06-07T18:54:53.162Z,59.85
2019-06-07T18:57:23.407Z,60.40
2019-06-07T18:59:54.390Z,61.13
2019-06-07T19:02:25.369Z,60.85
2019-06-07T19:04:56.372Z,61.07
2019-06-07T19:07:27.381Z,61.09
2019-06-07T19:09:56.991Z,60.82
2019-06-07T19:12:26.562Z,60.91
2019-06-07T19:14:55.919Z,61.28
2019-06-07T19:17:25.214Z,60.34
2019-06-07T19:19:55.989Z,59.97
2019-06-07T19:22:25.961Z,60.18
2019-06-07T19:24:56.932Z,60.17
2019-06-07T19:27:27.619Z,60.23
2019-06-07T19:29:57.255Z,60.42
2019-06-07T19:32:27.280Z,60.75
2019-06-07T19:34:57.482Z,60.36
2019-06-07T19:37:26.952Z,60.12
2019-06-07T19:39:58.026Z,60.25
2019-06-07T19:42:28.067Z,59.59
2019-06-07T19:45:16.527Z,59.67
2019-06-07T19:47:28.914Z,59.80
2019-06-07T19:49:59.147Z,59.74
2019-06-07T19:52:28.366Z,59.83
2019-06-07T19:55:00.121Z,59.97
2019-06-07T19:57:29.796Z,59.61
2019-06-07T20:00:02.730Z,59.25
2019-06-07T20:02:33.425Z,59.20
2019-06-07T20:05:06.751Z,59.00
2019-06-07T20:07:34.691Z,58.71
2019-06-07T20:10:04.806Z,59.05
2019-06-07T20:12:34.710Z,58.95
2019-06-07T20:15:25.170Z,58.79
2019-06-07T20:17:35.993Z,59.10
2019-06-07T20:20:05.866Z,59.54
2019-06-07T20:22:35.083Z,59.86
2019-06-07T20:25:05.045Z,60.29
2019-06-07T20:27:34.948Z,60.72
2019-06-07T20:30:04.700Z,60.89
2019-06-07T20:32:34.310Z,60.88
2019-06-07T20:35:04.151Z,61.15
2019-06-07T20:37:33.469Z,61.47
2019-06-07T20:40:19.559Z,61.40
2019-06-07T20:42:34.180Z,61.42
2019-06-07T20:45:03.948Z,60.96
2019-06-07T20:47:33.833Z,61.09
2019-06-07T20:50:04.151Z,61.19
2019-06-07T20:52:33.536Z,60.83
2019-06-07T20:55:03.242Z,60.53
2019-06-07T20:57:32.833Z,60.64
2019-06-07T21:00:10.567Z,60.58
2019-06-07T21:02:34.142Z,60.30
2019-06-07T21:05:03.553Z,60.01
2019-06-07T21:07:32.838Z,59.98
2019-06-07T21:10:03.638Z,59.29
2019-06-07T21:12:33.632Z,59.13
2019-06-07T21:15:07.075Z,58.77
2019-06-07T21:17:34.167Z,58.70
2019-06-07T21:20:05.462Z,58.81
2019-06-07T21:22:34.730Z,58.88
2019-06-07T21:25:07.094Z,58.95
2019-06-07T21:27:36.559Z,59.00
2019-06-07T21:30:07.271Z,58.83
2019-06-07T21:32:38.440Z,59.02
2019-06-07T21:35:10.218Z,59.03
2019-06-07T21:37:39.594Z,59.29
2019-06-07T21:40:10.335Z,59.26
2019-06-07T21:42:40.111Z,59.39
2019-06-07T21:45:10.038Z,59.64
2019-06-07T21:47:41.876Z,59.64
2019-06-07T21:50:12.791Z,59.40
2019-06-07T21:52:42.281Z,59.25
2019-06-07T21:55:12.043Z,59.42
2019-06-07T21:57:41.655Z,59.50
2019-06-07T22:00:17.708Z,59.76
2019-06-07T22:02:47.049Z,59.51
2019-06-07T22:05:16.692Z,59.50
2019-06-07T22:07:46.342Z,59.31
2019-06-07T22:10:16.334Z,58.92
2019-06-07T22:12:45.629Z,58.68
2019-06-07T22:15:32.054Z,59.26
2019-06-07T22:17:47.647Z,59.33
2019-06-07T22:20:17.070Z,59.43
2019-06-07T22:22:46.325Z,59.33
2019-06-07T22:25:17.540Z,59.52
2019-06-07T22:27:46.854Z,59.26
2019-06-07T22:30:16.082Z,59.26
2019-06-07T22:32:46.720Z,58.73
2019-06-07T22:35:16.329Z,58.71
2019-06-07T22:37:45.818Z,58.65
2019-06-07T22:40:15.473Z,58.34
2019-06-07T22:42:45.849Z,58.42
2019-06-07T22:45:16.669Z,57.98
2019-06-07T22:47:46.522Z,57.55
2019-06-07T22:50:18.545Z,57.39
2019-06-07T22:52:51.444Z,57.51
2019-06-07T22:55:21.996Z,57.71
2019-06-07T22:57:58.530Z,57.21
2019-06-07T23:00:30.300Z,57.55
2019-06-07T23:03:00.045Z,57.56
2019-06-07T23:05:29.658Z,57.26
2019-06-07T23:07:59.323Z,57.29
2019-06-07T23:10:28.612Z,57.46
2019-06-07T23:12:59.616Z,56.98
2019-06-07T23:15:29.217Z,57.28
2019-06-07T23:18:00.368Z,56.93
2019-06-07T23:20:31.400Z,57.00
2019-06-07T23:23:02.743Z,57.31
2019-06-07T23:25:32.387Z,57.50
2019-06-07T23:28:01.611Z,57.30
2019-06-07T23:30:31.365Z,57.69
2019-06-07T23:33:02.084Z,57.81
2019-06-07T23:35:31.316Z,57.88
2019-06-07T23:38:00.597Z,57.42
2019-06-07T23:40:30.258Z,57.61
2019-06-07T23:42:59.531Z,57.30
2019-06-07T23:45:29.235Z,57.41
2019-06-07T23:47:59.001Z,57.02
2019-06-07T23:50:28.556Z,57.42
2019-06-07T23:52:59.597Z,57.29
2019-06-07T23:55:28.882Z,57.39
2019-06-07T23:57:58.586Z,58.40
